createdAt,value
2023-02-05T00:00:35.481Z,103791.59
2023-02-05T00:05:37.232Z,103782.69
2023-02-05T00:10:45.730Z,103765.09
2023-02-05T00:15:47.600Z,103751.88
2023-02-05T00:20:49.305Z,103729.88
2023-02-05T00:25:51.035Z,103724.97
2023-02-05T00:30:53.881Z,103726.25
2023-02-05T00:35:58.351Z,103706.31
2023-02-05T00:41:02.492Z,103694.41
2023-02-05T00:46:10.410Z,103698.13
2023-02-05T00:51:16.808Z,103701.63
2023-02-05T00:56:22.975Z,103694.19
2023-02-05T01:01:25.023Z,103687.84
2023-02-05T01:06:32.129Z,103682.50
2023-02-05T01:11:35.618Z,103690.19
2023-02-05T01:16:40.590Z,103677.75
2023-02-05T01:21:44.642Z,103677.63
2023-02-05T01:26:48.933Z,103666.09
2023-02-05T01:31:51.923Z,103649.63
2023-02-05T01:36:53.657Z,103655.97
2023-02-05T01:41:57.843Z,103663.91
2023-02-05T01:46:59.513Z,103652.50
2023-02-05T01:52:05.138Z,103655.00
2023-02-05T01:57:13.668Z,103685.72
2023-02-05T02:02:20.910Z,103664.66
2023-02-05T02:07:35.192Z,103649.72
2023-02-05T02:12:41.529Z,103638.53
2023-02-05T02:17:47.948Z,103634.22
2023-02-05T02:22:54.806Z,103622.91
2023-02-05T02:28:09.575Z,103613.38
2023-02-05T02:33:35.668Z,103601.22
2023-02-05T02:38:49.077Z,103610.06
2023-02-05T02:43:59.217Z,103585.53
2023-02-05T02:49:04.185Z,103595.31
2023-02-05T02:54:08.587Z,103583.00
2023-02-05T02:59:25.357Z,103580.22
2023-02-05T03:04:33.340Z,103552.81
2023-02-05T03:09:51.551Z,103530.75
2023-02-05T03:14:54.735Z,103550.13
2023-02-05T03:20:02.424Z,103550.97
2023-02-05T03:25:08.544Z,103555.31
2023-02-05T03:30:11.223Z,103550.97
2023-02-05T03:35:21.296Z,103550.03
2023-02-05T03:40:37.020Z,103537.78
2023-02-05T03:46:21.130Z,103544.84
2023-02-05T03:51:23.498Z,103547.53
2023-02-05T03:56:34.167Z,103540.69
2023-02-05T04:01:36.760Z,103536.47
2023-02-05T04:06:42.044Z,103531.50
2023-02-05T04:11:47.275Z,103538.78
2023-02-05T04:16:52.766Z,103534.50
2023-02-05T04:22:00.078Z,103522.25
2023-02-05T04:27:10.357Z,103518.97
2023-02-05T04:32:19.898Z,103517.41
2023-02-05T04:37:25.030Z,103505.41
2023-02-05T04:42:26.971Z,103506.38
2023-02-05T04:47:32.642Z,103495.03
2023-02-05T04:52:36.866Z,103489.81
2023-02-05T04:57:44.960Z,103470.63
2023-02-05T05:02:49.193Z,103468.06
2023-02-05T05:07:50.906Z,103461.09
2023-02-05T05:12:54.898Z,103459.31
2023-02-05T05:17:56.600Z,103453.06
2023-02-05T05:22:58.295Z,103445.09
2023-02-05T05:28:00.077Z,103453.88
2023-02-05T05:33:02.850Z,103452.84
2023-02-05T05:38:07.016Z,103452.72
2023-02-05T05:43:32.096Z,103451.00
2023-02-05T05:48:35.394Z,103448.41
2023-02-05T05:53:39.480Z,103444.88
2023-02-05T05:58:44.584Z,103443.16
2023-02-05T06:03:46.327Z,103439.75
2023-02-05T06:08:48.571Z,103439.75
2023-02-05T06:13:50.338Z,103432.72
2023-02-05T06:18:55.440Z,103441.50
2023-02-05T06:24:05.053Z,103433.63
2023-02-05T06:29:11.705Z,103420.44
2023-02-05T06:34:15.703Z,103426.56
2023-02-05T06:39:24.918Z,103421.25
2023-02-05T06:44:29.551Z,103413.09
2023-02-05T06:49:31.233Z,103411.22
2023-02-05T06:54:35.385Z,103415.38
2023-02-05T06:59:41.376Z,103417.94
2023-02-05T07:04:46.065Z,103411.72
2023-02-05T07:09:47.930Z,103415.28
2023-02-05T07:14:54.369Z,103424.91
2023-02-05T07:20:01.188Z,103429.50
2023-02-05T07:25:04.955Z,103438.31
2023-02-05T07:30:09.353Z,103442.56
2023-02-05T07:35:13.361Z,103446.00
2023-02-05T07:40:15.251Z,103459.94
2023-02-05T07:45:17.286Z,103461.81
2023-02-05T07:50:21.062Z,103472.06
2023-02-05T07:55:25.046Z,103484.38
2023-02-05T08:00:29.023Z,103485.88
2023-02-05T08:05:31.919Z,103494.56
2023-02-05T08:10:34.365Z,103501.38
2023-02-05T08:15:39.236Z,103499.47
2023-02-05T08:20:43.924Z,103508.19
2023-02-05T08:25:45.684Z,103508.94
2023-02-05T08:30:47.503Z,103526.25
2023-02-05T08:35:51.298Z,103541.81
2023-02-05T08:40:55.511Z,103557.56
2023-02-05T08:45:57.332Z,103556.47
2023-02-05T08:51:03.850Z,103555.06
2023-02-05T08:56:10.544Z,103560.97
2023-02-05T09:01:17.329Z,103554.31
2023-02-05T09:06:23.203Z,103556.47
2023-02-05T09:11:28.190Z,103552.59
2023-02-05T09:16:29.987Z,103559.13
2023-02-05T09:21:31.959Z,103560.09
2023-02-05T09:26:33.804Z,103574.00
2023-02-05T09:31:42.964Z,103570.06
2023-02-05T09:36:47.260Z,103582.75
2023-02-05T09:42:06.792Z,103595.19
2023-02-05T09:47:21.595Z,103612.06
2023-02-05T09:52:33.733Z,103613.97
2023-02-05T09:57:37.715Z,103613.38
2023-02-05T10:02:50.910Z,103624.63
2023-02-05T10:08:28.072Z,103630.63
2023-02-05T10:13:43.776Z,103642.00
2023-02-05T10:18:56.604Z,103648.31
2023-02-05T10:24:04.341Z,103642.56
2023-02-05T10:29:37.323Z,103640.28
2023-02-05T10:34:49.149Z,103637.63
2023-02-05T10:39:53.999Z,103642.81
2023-02-05T10:45:01.737Z,103646.13
2023-02-05T10:50:18.747Z,103641.81
2023-02-05T10:55:23.098Z,103648.97
2023-02-05T11:00:25.368Z,103653.69
2023-02-05T11:05:37.148Z,103647.09
2023-02-05T11:10:44.360Z,103654.50
2023-02-05T11:15:56.762Z,103667.97
2023-02-05T11:21:06.061Z,103680.78
2023-02-05T11:26:15.329Z,103694.53
2023-02-05T11:31:33.356Z,103693.81
2023-02-05T11:36:49.147Z,103684.28
2023-02-05T11:41:56.416Z,103680.75
2023-02-05T11:47:01.907Z,103678.56
2023-02-05T11:52:13.498Z,103680.78
2023-02-05T11:57:17.656Z,103681.44
2023-02-05T12:02:31.090Z,103683.41
2023-02-05T12:07:41.758Z,103674.78
2023-02-05T12:13:02.220Z,103661.06
2023-02-05T12:18:24.543Z,103666.22
2023-02-05T12:23:31.690Z,103686.66
2023-02-05T12:28:45.893Z,103688.66
2023-02-05T12:34:18.076Z,103679.13
2023-02-05T12:39:25.730Z,103691.72
2023-02-05T12:44:37.740Z,103708.72
2023-02-05T12:49:47.796Z,103719.50
2023-02-05T12:54:52.448Z,103713.19
2023-02-05T13:00:01.004Z,103737.63
2023-02-05T13:05:15.253Z,103740.13
2023-02-05T13:10:24.835Z,103759.97
2023-02-05T13:15:31.214Z,103760.72
2023-02-05T13:20:56.731Z,103751.34
2023-02-05T13:26:18.110Z,103749.19
2023-02-05T13:31:30.903Z,103756.13
2023-02-05T13:36:39.768Z,103785.53
2023-02-05T13:41:55.870Z,103787.34
2023-02-05T13:46:58.415Z,103801.69
2023-02-05T13:52:09.432Z,103805.38
2023-02-05T13:57:26.270Z,103806.50
2023-02-05T14:02:33.633Z,103820.09
2023-02-05T14:07:39.513Z,103810.94
2023-02-05T14:12:41.381Z,103811.75
2023-02-05T14:17:47.853Z,103806.59
2023-02-05T14:22:51.786Z,103808.97
2023-02-05T14:27:56.803Z,103825.66
2023-02-05T14:33:03.846Z,103822.25
2023-02-05T14:38:31.556Z,103827.84
2023-02-05T14:43:41.037Z,103844.09
2023-02-05T14:48:43.416Z,103856.59
2023-02-05T14:53:59.402Z,103857.34
2023-02-05T14:59:07.308Z,103865.34
2023-02-05T15:04:24.562Z,103888.03
2023-02-05T15:09:38.217Z,103899.75
2023-02-05T15:14:43.670Z,103890.91
2023-02-05T15:19:53.225Z,103892.22
2023-02-05T15:25:00.016Z,103903.69
2023-02-05T15:30:08.549Z,103902.56
2023-02-05T15:35:19.100Z,103896.16
2023-02-05T15:40:25.446Z,103907.69
2023-02-05T15:45:33.724Z,103909.41
2023-02-05T15:50:48.853Z,103924.47
2023-02-05T15:55:51.437Z,103920.78
2023-02-05T16:00:56.649Z,103917.47
2023-02-05T16:06:04.083Z,103918.47
2023-02-05T16:11:07.156Z,103925.63
2023-02-05T16:16:19.654Z,103945.88
2023-02-05T16:21:30.602Z,103949.19
2023-02-05T16:26:41.694Z,103955.09
2023-02-05T16:31:43.550Z,103967.34
2023-02-05T16:36:50.210Z,103957.22
2023-02-05T16:42:14.692Z,103965.59
2023-02-05T16:47:21.864Z,103979.47
2023-02-05T16:52:32.129Z,103990.56
2023-02-05T16:57:38.937Z,103992.03
2023-02-05T17:02:41.414Z,103998.50
2023-02-05T17:07:43.138Z,104009.25
2023-02-05T17:13:09.627Z,104030.50
2023-02-05T17:18:28.298Z,104045.00
2023-02-05T17:23:32.483Z,104044.25
2023-02-05T17:28:43.881Z,104049.91
2023-02-05T17:33:53.687Z,104040.34
2023-02-05T17:38:57.707Z,104046.69
2023-02-05T17:44:02.446Z,104042.53
2023-02-05T17:49:04.274Z,104049.44
2023-02-05T17:54:16.448Z,104061.78
2023-02-05T17:59:22.636Z,104054.41
2023-02-05T18:04:24.900Z,104059.84
2023-02-05T18:09:28.979Z,104067.09
2023-02-05T18:14:33.055Z,104060.28
2023-02-05T18:19:37.366Z,104065.94
2023-02-05T18:24:40.547Z,104080.94
2023-02-05T18:29:43.900Z,104086.06
2023-02-05T18:34:46.044Z,104082.47
2023-02-05T18:39:48.110Z,104097.47
2023-02-05T18:44:52.053Z,104113.56
2023-02-05T18:49:54.595Z,104129.44
2023-02-05T18:54:58.695Z,104137.41
2023-02-05T19:00:05.060Z,104139.31
2023-02-05T19:05:08.358Z,104137.53
2023-02-05T19:10:16.014Z,104121.91
2023-02-05T19:15:21.902Z,104128.38
2023-02-05T19:20:24.610Z,104143.50
2023-02-05T19:25:26.536Z,104142.41
2023-02-05T19:30:28.405Z,104130.19
2023-02-05T19:35:32.575Z,104132.16
2023-02-05T19:40:35.267Z,104111.47
2023-02-05T19:45:37.611Z,104125.91
2023-02-05T19:50:40.146Z,104143.78
2023-02-05T19:55:41.839Z,104146.69
2023-02-05T20:00:44.634Z,104154.72
2023-02-05T20:05:49.426Z,104166.56
2023-02-05T20:11:01.806Z,104178.19
2023-02-05T20:16:16.736Z,104177.28
2023-02-05T20:21:21.047Z,104197.03
2023-02-05T20:26:26.521Z,104198.78
2023-02-05T20:31:37.780Z,104194.47
2023-02-05T20:36:41.785Z,104200.53
2023-02-05T20:41:49.761Z,104199.78
2023-02-05T20:46:56.228Z,104200.44
2023-02-05T20:52:01.323Z,104210.97
2023-02-05T20:57:05.588Z,104217.91
2023-02-05T21:02:10.657Z,104204.97
2023-02-05T21:07:14.939Z,104217.53
2023-02-05T21:12:16.888Z,104214.47
2023-02-05T21:17:18.636Z,104215.28
2023-02-05T21:22:20.420Z,104213.50
2023-02-05T21:27:25.464Z,104228.22
2023-02-05T21:32:30.652Z,104229.75
2023-02-05T21:37:32.548Z,104232.44
2023-02-05T21:42:40.454Z,104244.81
2023-02-05T21:47:44.340Z,104244.81
2023-02-05T21:52:46.022Z,104239.66
2023-02-05T21:57:48.066Z,104239.88
2023-02-05T22:02:52.055Z,104256.41
2023-02-05T22:07:53.706Z,104253.75
2023-02-05T22:12:55.383Z,104260.88
2023-02-05T22:17:59.354Z,104273.47
2023-02-05T22:23:03.043Z,104276.13
2023-02-05T22:28:05.044Z,104281.69
2023-02-05T22:33:09.031Z,104276.41
2023-02-05T22:38:10.724Z,104274.47
2023-02-05T22:43:12.951Z,104264.91
2023-02-05T22:48:14.667Z,104264.16
2023-02-05T22:53:19.762Z,104267.69
2023-02-05T22:58:26.668Z,104273.84
2023-02-05T23:03:29.144Z,104279.66
2023-02-05T23:08:35.611Z,104276.19
2023-02-05T23:13:37.363Z,104275.22
2023-02-05T23:18:43.762Z,104275.31
2023-02-05T23:23:50.618Z,104279.66
2023-02-05T23:28:58.602Z,104271.41
2023-02-05T23:34:00.589Z,104262.25
2023-02-05T23:39:02.679Z,104267.09
2023-02-05T23:44:23.127Z,104261.09
2023-02-05T23:49:25.130Z,104261.47
2023-02-05T23:54:26.854Z,104267.81
2023-02-05T23:59:30.798Z,104259.94
